sensor_id;sensor_type;location;lat;lon;timestamp;pressure;altitude;pressure_sealevel;temperature;humidity
13027;BME280;6580;42.680;23.324;2024-01-15T00:02:27;94800.97;;;-1.62;100.00
13027;BME280;6580;42.680;23.324;2024-01-15T00:04:54;94787.69;;;-1.71;100.00
13027;BME280;6580;42.680;23.324;2024-01-15T00:07:28;94799.00;;;-1.58;100.00
13027;BME280;6580;42.680;23.324;2024-01-15T00:09:55;94785.47;;;-1.51;100.00
13027;BME280;6580;42.680;23.324;2024-01-15T00:12:22;94796.41;;;-1.58;100.00
13027;BME280;6580;42.680;23.324;2024-01-15T00:14:51;94789.31;;;-1.56;100.00
13027;BME280;6580;42.680;23.324;2024-01-15T00:17:19;94786.91;;;-1.59;100.00
13027;BME280;6580;42.680;23.324;2024-01-15T00:19:46;94798.72;;;-1.54;100.00
13027;BME280;6580;42.680;23.324;2024-01-15T00:22:14;94782.94;;;-1.79;100.00
13027;BME280;6580;42.680;23.324;2024-01-15T00:24:48;94797.06;;;-1.55;100.00
13027;BME280;6580;42.680;23.324;2024-01-15T00:27:17;94793.34;;;-1.38;100.00
13027;BME280;6580;42.680;23.324;2024-01-15T00:29:44;94790.72;;;-1.65;100.00
13027;BME280;6580;42.680;23.324;2024-01-15T00:32:11;94795.34;;;-1.82;100.00
13027;BME280;6580;42.680;23.324;2024-01-15T00:34:39;94778.88;;;-1.56;100.00
13027;BME280;6580;42.680;23.324;2024-01-15T00:37:06;94788.56;;;-1.58;100.00
13027;BME280;6580;42.680;23.324;2024-01-15T00:39:35;94785.63;;;-1.66;100.00
13027;BME280;6580;42.680;23.324;2024-01-15T00:42:06;94780.84;;;-1.60;100.00
13027;BME280;6580;42.680;23.324;2024-01-15T00:44:33;94793.66;;;-1.97;100.00
13027;BME280;6580;42.680;23.324;2024-01-15T00:47:00;94786.03;;;-1.86;100.00
13027;BME280;6580;42.680;23.324;2024-01-15T00:49:29;94778.94;;;-1.98;100.00
13027;BME280;6580;42.680;23.324;2024-01-15T00:51:59;94789.34;;;-1.70;100.00
13027;BME280;6580;42.680;23.324;2024-01-15T00:54:26;94793.56;;;-1.82;100.00
13027;BME280;6580;42.680;23.324;2024-01-15T00:56:53;94786.78;;;-1.98;100.00
13027;BME280;6580;42.680;23.324;2024-01-15T00:59:23;94790.59;;;-1.90;100.00
13027;BME280;6580;42.680;23.324;2024-01-15T01:01:51;94788.63;;;-1.72;100.00
13027;BME280;6580;42.680;23.324;2024-01-15T01:04:20;94784.84;;;-1.95;100.00
13027;BME280;6580;42.680;23.324;2024-01-15T01:06:49;94793.16;;;-2.02;100.00
13027;BME280;6580;42.680;23.324;2024-01-15T01:09:19;94792.56;;;-1.93;100.00
13027;BME280;6580;42.680;23.324;2024-01-15T01:11:46;94779.81;;;-1.98;100.00
13027;BME280;6580;42.680;23.324;2024-01-15T01:14:14;94773.28;;;-2.04;100.00
13027;BME280;6580;42.680;23.324;2024-01-15T01:16:44;94779.34;;;-2.04;100.00
13027;BME280;6580;42.680;23.324;2024-01-15T01:19:11;94779.91;;;-2.13;100.00
13027;BME280;6580;42.680;23.324;2024-01-15T01:21:39;94770.09;;;-1.82;100.00
13027;BME280;6580;42.680;23.324;2024-01-15T01:24:07;94762.06;;;-1.79;100.00
13027;BME280;6580;42.680;23.324;2024-01-15T01:26:34;94776.81;;;-2.05;100.00
13027;BME280;6580;42.680;23.324;2024-01-15T01:29:01;94772.47;;;-2.05;100.00
13027;BME280;6580;42.680;23.324;2024-01-15T01:31:28;94765.84;;;-2.10;100.00
13027;BME280;6580;42.680;23.324;2024-01-15T01:33:57;94767.00;;;-2.28;100.00
13027;BME280;6580;42.680;23.324;2024-01-15T01:36:24;94757.84;;;-2.21;100.00
13027;BME280;6580;42.680;23.324;2024-01-15T01:38:52;94764.78;;;-1.94;100.00
13027;BME280;6580;42.680;23.324;2024-01-15T01:41:20;94759.69;;;-1.96;100.00
13027;BME280;6580;42.680;23.324;2024-01-15T01:43:51;94750.66;;;-2.04;100.00
13027;BME280;6580;42.680;23.324;2024-01-15T01:46:18;94756.44;;;-2.13;100.00
13027;BME280;6580;42.680;23.324;2024-01-15T01:48:47;94761.34;;;-2.08;100.00
13027;BME280;6580;42.680;23.324;2024-01-15T01:51:16;94764.25;;;-2.13;100.00
13027;BME280;6580;42.680;23.324;2024-01-15T01:53:44;94756.97;;;-1.94;100.00
13027;BME280;6580;42.680;23.324;2024-01-15T01:56:14;94757.78;;;-1.80;100.00
13027;BME280;6580;42.680;23.324;2024-01-15T01:58:41;94749.41;;;-1.85;100.00
13027;BME280;6580;42.680;23.324;2024-01-15T02:01:09;94753.19;;;-1.76;100.00
13027;BME280;6580;42.680;23.324;2024-01-15T02:03:36;94743.63;;;-1.90;100.00
13027;BME280;6580;42.680;23.324;2024-01-15T02:06:03;94743.38;;;-1.99;100.00
13027;BME280;6580;42.680;23.324;2024-01-15T02:08:32;94746.97;;;-1.88;100.00
13027;BME280;6580;42.680;23.324;2024-01-15T02:11:00;94742.66;;;-2.01;100.00
13027;BME280;6580;42.680;23.324;2024-01-15T02:13:27;94739.69;;;-2.23;100.00
13027;BME280;6580;42.680;23.324;2024-01-15T02:15:54;94736.63;;;-2.29;100.00
13027;BME280;6580;42.680;23.324;2024-01-15T02:18:22;94728.97;;;-2.18;100.00
13027;BME280;6580;42.680;23.324;2024-01-15T02:20:49;94710.03;;;-2.48;100.00
13027;BME280;6580;42.680;23.324;2024-01-15T02:23:18;94726.28;;;-2.31;100.00
13027;BME280;6580;42.680;23.324;2024-01-15T02:25:46;94705.06;;;-2.39;100.00
13027;BME280;6580;42.680;23.324;2024-01-15T02:28:14;94684.38;;;-2.28;100.00
13027;BME280;6580;42.680;23.324;2024-01-15T02:30:44;94676.75;;;-2.31;100.00
13027;BME280;6580;42.680;23.324;2024-01-15T02:33:12;94664.00;;;-2.35;100.00
13027;BME280;6580;42.680;23.324;2024-01-15T02:35:39;94679.31;;;-2.17;100.00
13027;BME280;6580;42.680;23.324;2024-01-15T02:38:06;94684.94;;;-2.23;100.00
13027;BME280;6580;42.680;23.324;2024-01-15T02:40:36;94683.06;;;-2.21;100.00
13027;BME280;6580;42.680;23.324;2024-01-15T02:43:03;94677.59;;;-2.30;100.00
13027;BME280;6580;42.680;23.324;2024-01-15T02:45:32;94679.00;;;-2.39;100.00
13027;BME280;6580;42.680;23.324;2024-01-15T02:48:00;94678.09;;;-2.38;100.00
13027;BME280;6580;42.680;23.324;2024-01-15T02:50:27;94679.69;;;-2.09;100.00
13027;BME280;6580;42.680;23.324;2024-01-15T02:52:58;94681.78;;;-2.28;100.00
13027;BME280;6580;42.680;23.324;2024-01-15T02:55:26;94684.56;;;-2.31;100.00
13027;BME280;6580;42.680;23.324;2024-01-15T02:57:56;94686.75;;;-2.51;100.00
13027;BME280;6580;42.680;23.324;2024-01-15T03:00:23;94679.00;;;-2.39;100.00
13027;BME280;6580;42.680;23.324;2024-01-15T03:02:51;94679.25;;;-2.15;100.00
13027;BME280;6580;42.680;23.324;2024-01-15T03:05:19;94684.78;;;-2.07;100.00
13027;BME280;6580;42.680;23.324;2024-01-15T03:07:46;94671.16;;;-2.25;100.00
13027;BME280;6580;42.680;23.324;2024-01-15T03:10:13;94688.69;;;-2.01;100.00
13027;BME280;6580;42.680;23.324;2024-01-15T03:12:40;94672.34;;;-2.16;100.00
13027;BME280;6580;42.680;23.324;2024-01-15T03:15:11;94654.22;;;-2.32;100.00
13027;BME280;6580;42.680;23.324;2024-01-15T03:17:38;94664.28;;;-2.26;100.00
13027;BME280;6580;42.680;23.324;2024-01-15T03:20:06;94656.97;;;-2.07;100.00
13027;BME280;6580;42.680;23.324;2024-01-15T03:22:34;94675.41;;;-2.10;100.00
13027;BME280;6580;42.680;23.324;2024-01-15T03:25:04;94665.34;;;-2.16;100.00
13027;BME280;6580;42.680;23.324;2024-01-15T03:27:32;94658.22;;;-2.00;100.00
13027;BME280;6580;42.680;23.324;2024-01-15T03:29:59;94652.72;;;-1.96;100.00
13027;BME280;6580;42.680;23.324;2024-01-15T03:32:30;94657.66;;;-1.91;100.00
13027;BME280;6580;42.680;23.324;2024-01-15T03:34:57;94652.44;;;-1.91;100.00
13027;BME280;6580;42.680;23.324;2024-01-15T03:37:24;94652.69;;;-2.08;100.00
13027;BME280;6580;42.680;23.324;2024-01-15T03:39:52;94648.75;;;-2.01;100.00
13027;BME280;6580;42.680;23.324;2024-01-15T03:42:21;94649.69;;;-2.02;100.00
13027;BME280;6580;42.680;23.324;2024-01-15T03:44:49;94651.63;;;-2.05;100.00
13027;BME280;6580;42.680;23.324;2024-01-15T03:47:16;94657.34;;;-1.87;100.00
13027;BME280;6580;42.680;23.324;2024-01-15T03:49:45;94657.69;;;-2.05;100.00
13027;BME280;6580;42.680;23.324;2024-01-15T03:52:12;94656.09;;;-2.07;100.00
13027;BME280;6580;42.680;23.324;2024-01-15T03:54:40;94629.06;;;-2.19;100.00
13027;BME280;6580;42.680;23.324;2024-01-15T03:57:07;94654.53;;;-2.10;100.00
13027;BME280;6580;42.680;23.324;2024-01-15T03:59:37;94665.16;;;-2.13;100.00
13027;BME280;6580;42.680;23.324;2024-01-15T04:02:04;94656.94;;;-2.33;100.00
13027;BME280;6580;42.680;23.324;2024-01-15T04:04:32;94653.09;;;-2.28;100.00
13027;BME280;6580;42.680;23.324;2024-01-15T04:07:00;94623.34;;;-2.11;100.00
13027;BME280;6580;42.680;23.324;2024-01-15T04:09:27;94633.88;;;-2.13;100.00
13027;BME280;6580;42.680;23.324;2024-01-15T04:11:54;94628.88;;;-2.30;100.00
13027;BME280;6580;42.680;23.324;2024-01-15T04:14:21;94640.81;;;-2.26;100.00
13027;BME280;6580;42.680;23.324;2024-01-15T04:16:50;94638.56;;;-2.32;100.00
13027;BME280;6580;42.680;23.324;2024-01-15T04:19:17;94622.19;;;-2.20;100.00
13027;BME280;6580;42.680;23.324;2024-01-15T04:21:46;94637.63;;;-2.31;100.00
13027;BME280;6580;42.680;23.324;2024-01-15T04:24:16;94624.78;;;-2.34;100.00
13027;BME280;6580;42.680;23.324;2024-01-15T04:26:45;94629.81;;;-2.31;100.00
13027;BME280;6580;42.680;23.324;2024-01-15T04:29:12;94626.47;;;-2.33;100.00
13027;BME280;6580;42.680;23.324;2024-01-15T04:31:39;94638.44;;;-2.16;100.00
13027;BME280;6580;42.680;23.324;2024-01-15T04:34:07;94630.31;;;-2.38;100.00
13027;BME280;6580;42.680;23.324;2024-01-15T04:36:41;94630.38;;;-2.26;100.00
13027;BME280;6580;42.680;23.324;2024-01-15T04:39:08;94640.88;;;-2.27;100.00
13027;BME280;6580;42.680;23.324;2024-01-15T04:41:37;94634.97;;;-2.43;100.00
13027;BME280;6580;42.680;23.324;2024-01-15T04:44:07;94629.63;;;-2.28;100.00
13027;BME280;6580;42.680;23.324;2024-01-15T04:46:34;94613.00;;;-2.13;100.00
13027;BME280;6580;42.680;23.324;2024-01-15T04:49:01;94616.78;;;-2.31;100.00
13027;BME280;6580;42.680;23.324;2024-01-15T04:51:27;94624.53;;;-2.29;100.00
13027;BME280;6580;42.680;23.324;2024-01-15T04:53:54;94626.16;;;-2.14;100.00
13027;BME280;6580;42.680;23.324;2024-01-15T04:56:22;94624.34;;;-2.40;100.00
13027;BME280;6580;42.680;23.324;2024-01-15T04:58:51;94611.44;;;-2.42;100.00
13027;BME280;6580;42.680;23.324;2024-01-15T05:01:18;94617.91;;;-2.35;100.00
13027;BME280;6580;42.680;23.324;2024-01-15T05:03:45;94615.66;;;-2.27;100.00
13027;BME280;6580;42.680;23.324;2024-01-15T05:06:12;94612.69;;;-2.21;100.00
13027;BME280;6580;42.680;23.324;2024-01-15T05:08:40;94611.28;;;-2.26;100.00
13027;BME280;6580;42.680;23.324;2024-01-15T05:11:07;94603.50;;;-2.14;100.00
13027;BME280;6580;42.680;23.324;2024-01-15T05:13:34;94595.41;;;-2.09;100.00
13027;BME280;6580;42.680;23.324;2024-01-15T05:16:03;94592.81;;;-2.09;100.00
13027;BME280;6580;42.680;23.324;2024-01-15T05:18:31;94605.91;;;-2.11;100.00
13027;BME280;6580;42.680;23.324;2024-01-15T05:21:00;94591.38;;;-2.01;100.00
13027;BME280;6580;42.680;23.324;2024-01-15T05:23:28;94601.41;;;-2.21;100.00
13027;BME280;6580;42.680;23.324;2024-01-15T05:25:55;94609.91;;;-2.32;100.00
13027;BME280;6580;42.680;23.324;2024-01-15T05:28:22;94583.00;;;-2.59;100.00
13027;BME280;6580;42.680;23.324;2024-01-15T05:30:49;94615.72;;;-2.41;100.00
13027;BME280;6580;42.680;23.324;2024-01-15T05:33:18;94614.53;;;-2.49;100.00
13027;BME280;6580;42.680;23.324;2024-01-15T05:35:45;94594.44;;;-2.21;100.00
13027;BME280;6580;42.680;23.324;2024-01-15T05:38:12;94599.41;;;-2.18;100.00
13027;BME280;6580;42.680;23.324;2024-01-15T05:40:40;94592.06;;;-2.38;100.00
13027;BME280;6580;42.680;23.324;2024-01-15T05:43:09;94596.13;;;-2.34;100.00
13027;BME280;6580;42.680;23.324;2024-01-15T05:45:37;94591.81;;;-2.21;100.00
13027;BME280;6580;42.680;23.324;2024-01-15T05:48:05;94592.25;;;-2.41;100.00
13027;BME280;6580;42.680;23.324;2024-01-15T05:50:34;94577.50;;;-2.28;100.00
13027;BME280;6580;42.680;23.324;2024-01-15T05:53:01;94579.97;;;-2.39;100.00
13027;BME280;6580;42.680;23.324;2024-01-15T05:55:28;94577.38;;;-2.26;100.00
13027;BME280;6580;42.680;23.324;2024-01-15T05:57:55;94564.09;;;-2.36;100.00
13027;BME280;6580;42.680;23.324;2024-01-15T06:00:22;94572.41;;;-2.43;100.00
13027;BME280;6580;42.680;23.324;2024-01-15T06:02:50;94575.94;;;-2.18;100.00
13027;BME280;6580;42.680;23.324;2024-01-15T06:05:17;94593.38;;;-2.18;100.00
13027;BME280;6580;42.680;23.324;2024-01-15T06:07:46;94591.75;;;-2.07;100.00
13027;BME280;6580;42.680;23.324;2024-01-15T06:10:15;94575.72;;;-2.01;100.00
13027;BME280;6580;42.680;23.324;2024-01-15T06:12:43;94589.47;;;-1.99;100.00
13027;BME280;6580;42.680;23.324;2024-01-15T06:15:11;94575.84;;;-1.90;100.00
13027;BME280;6580;42.680;23.324;2024-01-15T06:17:38;94591.00;;;-1.83;100.00
13027;BME280;6580;42.680;23.324;2024-01-15T06:20:09;94559.44;;;-1.92;100.00
13027;BME280;6580;42.680;23.324;2024-01-15T06:22:38;94583.09;;;-2.07;100.00
13027;BME280;6580;42.680;23.324;2024-01-15T06:25:10;94568.94;;;-1.91;100.00
13027;BME280;6580;42.680;23.324;2024-01-15T06:27:37;94556.34;;;-1.72;100.00
13027;BME280;6580;42.680;23.324;2024-01-15T06:30:05;94556.53;;;-1.88;100.00
13027;BME280;6580;42.680;23.324;2024-01-15T06:32:33;94562.41;;;-1.84;100.00
13027;BME280;6580;42.680;23.324;2024-01-15T06:35:05;94586.34;;;-1.65;100.00
13027;BME280;6580;42.680;23.324;2024-01-15T06:37:32;94569.97;;;-1.55;100.00
13027;BME280;6580;42.680;23.324;2024-01-15T06:39:59;94573.84;;;-1.35;100.00
13027;BME280;6580;42.680;23.324;2024-01-15T06:42:28;94567.97;;;-1.02;100.00
13027;BME280;6580;42.680;23.324;2024-01-15T06:44:55;94571.00;;;-1.07;100.00
13027;BME280;6580;42.680;23.324;2024-01-15T06:47:22;94575.00;;;-1.14;100.00
13027;BME280;6580;42.680;23.324;2024-01-15T06:49:49;94570.97;;;-0.83;100.00
13027;BME280;6580;42.680;23.324;2024-01-15T06:52:18;94567.06;;;-0.65;100.00
13027;BME280;6580;42.680;23.324;2024-01-15T06:54:47;94562.59;;;-0.75;100.00
13027;BME280;6580;42.680;23.324;2024-01-15T06:57:15;94571.16;;;-0.61;100.00
13027;BME280;6580;42.680;23.324;2024-01-15T06:59:44;94581.03;;;-0.41;100.00
13027;BME280;6580;42.680;23.324;2024-01-15T07:02:11;94576.28;;;-0.36;100.00
13027;BME280;6580;42.680;23.324;2024-01-15T07:04:38;94577.94;;;-0.22;100.00
13027;BME280;6580;42.680;23.324;2024-01-15T07:07:06;94587.47;;;-0.34;100.00
13027;BME280;6580;42.680;23.324;2024-01-15T07:09:32;94577.72;;;-0.19;100.00
13027;BME280;6580;42.680;23.324;2024-01-15T07:12:00;94579.59;;;-0.21;100.00
13027;BME280;6580;42.680;23.324;2024-01-15T07:14:27;94575.69;;;-0.39;100.00
13027;BME280;6580;42.680;23.324;2024-01-15T07:16:56;94587.66;;;-0.24;100.00
13027;BME280;6580;42.680;23.324;2024-01-15T07:19:23;94590.66;;;-0.41;100.00
13027;BME280;6580;42.680;23.324;2024-01-15T07:21:50;94579.00;;;-0.25;100.00
13027;BME280;6580;42.680;23.324;2024-01-15T07:24:21;94562.88;;;-0.19;100.00
13027;BME280;6580;42.680;23.324;2024-01-15T07:26:49;94588.72;;;-0.27;100.00
13027;BME280;6580;42.680;23.324;2024-01-15T07:29:19;94561.66;;;-0.15;100.00
13027;BME280;6580;42.680;23.324;2024-01-15T07:31:55;94548.38;;;-0.12;100.00
13027;BME280;6580;42.680;23.324;2024-01-15T07:34:22;94551.50;;;-0.07;100.00
13027;BME280;6580;42.680;23.324;2024-01-15T07:36:49;94552.44;;;-0.08;100.00
13027;BME280;6580;42.680;23.324;2024-01-15T07:39:17;94556.28;;;-0.01;100.00
13027;BME280;6580;42.680;23.324;2024-01-15T07:41:45;94557.88;;;0.12;100.00
13027;BME280;6580;42.680;23.324;2024-01-15T07:44:12;94570.41;;;0.20;100.00
13027;BME280;6580;42.680;23.324;2024-01-15T07:46:39;94562.38;;;0.34;100.00
13027;BME280;6580;42.680;23.324;2024-01-15T07:49:09;94574.56;;;0.57;100.00
13027;BME280;6580;42.680;23.324;2024-01-15T07:51:37;94576.88;;;0.27;100.00
13027;BME280;6580;42.680;23.324;2024-01-15T07:54:06;94576.97;;;0.60;100.00
13027;BME280;6580;42.680;23.324;2024-01-15T07:56:33;94582.00;;;0.74;100.00
13027;BME280;6580;42.680;23.324;2024-01-15T07:59:00;94562.56;;;0.65;100.00
13027;BME280;6580;42.680;23.324;2024-01-15T08:01:27;94544.03;;;0.79;100.00
13027;BME280;6580;42.680;23.324;2024-01-15T08:03:54;94521.03;;;0.72;100.00
13027;BME280;6580;42.680;23.324;2024-01-15T08:06:22;94532.25;;;0.96;100.00
13027;BME280;6580;42.680;23.324;2024-01-15T08:08:49;94549.41;;;0.99;100.00
13027;BME280;6580;42.680;23.324;2024-01-15T08:11:17;94547.63;;;0.89;99.99
13027;BME280;6580;42.680;23.324;2024-01-15T08:13:44;94537.03;;;0.91;99.05
13027;BME280;6580;42.680;23.324;2024-01-15T08:16:11;94554.28;;;1.04;99.50
13027;BME280;6580;42.680;23.324;2024-01-15T08:18:40;94565.63;;;1.04;100.00
13027;BME280;6580;42.680;23.324;2024-01-15T08:21:08;94560.13;;;1.29;100.00
13027;BME280;6580;42.680;23.324;2024-01-15T08:23:39;94563.22;;;1.12;98.42
13027;BME280;6580;42.680;23.324;2024-01-15T08:26:07;94575.03;;;1.07;98.89
13027;BME280;6580;42.680;23.324;2024-01-15T08:28:35;94571.94;;;1.24;98.91
13027;BME280;6580;42.680;23.324;2024-01-15T08:31:02;94565.28;;;1.53;96.87
13027;BME280;6580;42.680;23.324;2024-01-15T08:33:30;94555.38;;;1.56;95.99
13027;BME280;6580;42.680;23.324;2024-01-15T08:35:57;94544.25;;;1.64;96.37
13027;BME280;6580;42.680;23.324;2024-01-15T08:38:24;94536.63;;;1.72;94.56
13027;BME280;6580;42.680;23.324;2024-01-15T08:40:58;94535.25;;;1.88;95.46
13027;BME280;6580;42.680;23.324;2024-01-15T08:43:26;94535.16;;;1.90;93.82
13027;BME280;6580;42.680;23.324;2024-01-15T08:45:53;94530.38;;;1.84;93.88
13027;BME280;6580;42.680;23.324;2024-01-15T08:48:21;94516.59;;;2.02;91.66
13027;BME280;6580;42.680;23.324;2024-01-15T08:50:49;94503.72;;;1.99;92.68
13027;BME280;6580;42.680;23.324;2024-01-15T08:53:16;94526.53;;;2.30;92.46
13027;BME280;6580;42.680;23.324;2024-01-15T08:55:46;94525.00;;;2.68;89.95
13027;BME280;6580;42.680;23.324;2024-01-15T08:58:16;94515.44;;;2.47;90.48
13027;BME280;6580;42.680;23.324;2024-01-15T09:00:43;94507.56;;;2.26;89.50
13027;BME280;6580;42.680;23.324;2024-01-15T09:03:12;94505.38;;;2.31;88.84
13027;BME280;6580;42.680;23.324;2024-01-15T09:05:39;94490.94;;;2.26;88.58
13027;BME280;6580;42.680;23.324;2024-01-15T09:08:06;94503.91;;;2.18;87.82
13027;BME280;6580;42.680;23.324;2024-01-15T09:10:33;94475.88;;;2.07;89.07
13027;BME280;6580;42.680;23.324;2024-01-15T09:13:00;94479.56;;;2.16;89.18
13027;BME280;6580;42.680;23.324;2024-01-15T09:15:30;94455.13;;;2.66;87.61
13027;BME280;6580;42.680;23.324;2024-01-15T09:17:57;94441.69;;;2.59;87.00
13027;BME280;6580;42.680;23.324;2024-01-15T09:20:24;94446.56;;;2.23;87.05
13027;BME280;6580;42.680;23.324;2024-01-15T09:22:53;94442.59;;;2.49;88.12
13027;BME280;6580;42.680;23.324;2024-01-15T09:25:20;94443.97;;;2.73;88.82
13027;BME280;6580;42.680;23.324;2024-01-15T09:27:47;94444.47;;;2.88;85.25
13027;BME280;6580;42.680;23.324;2024-01-15T09:30:15;94443.53;;;2.98;84.20
13027;BME280;6580;42.680;23.324;2024-01-15T09:32:43;94420.25;;;2.94;82.93
13027;BME280;6580;42.680;23.324;2024-01-15T09:35:10;94444.06;;;2.92;83.41
13027;BME280;6580;42.680;23.324;2024-01-15T09:37:39;94431.31;;;2.88;82.58
13027;BME280;6580;42.680;23.324;2024-01-15T09:40:08;94424.91;;;2.81;83.01
13027;BME280;6580;42.680;23.324;2024-01-15T09:42:41;94424.56;;;2.65;83.84
13027;BME280;6580;42.680;23.324;2024-01-15T09:45:09;94408.19;;;2.52;85.50
13027;BME280;6580;42.680;23.324;2024-01-15T09:47:37;94404.22;;;2.16;87.46
13027;BME280;6580;42.680;23.324;2024-01-15T09:50:06;94392.34;;;2.22;89.25
13027;BME280;6580;42.680;23.324;2024-01-15T09:52:34;94395.13;;;2.00;90.10
13027;BME280;6580;42.680;23.324;2024-01-15T09:55:04;94379.94;;;2.24;89.28
13027;BME280;6580;42.680;23.324;2024-01-15T09:57:32;94378.72;;;1.87;91.57
13027;BME280;6580;42.680;23.324;2024-01-15T10:00:01;94336.28;;;2.02;91.38
13027;BME280;6580;42.680;23.324;2024-01-15T10:02:30;94365.22;;;2.12;90.62
13027;BME280;6580;42.680;23.324;2024-01-15T10:04:57;94380.53;;;2.07;93.32
13027;BME280;6580;42.680;23.324;2024-01-15T10:07:27;94397.03;;;2.18;91.54
13027;BME280;6580;42.680;23.324;2024-01-15T10:09:56;94382.81;;;2.21;90.04
13027;BME280;6580;42.680;23.324;2024-01-15T10:12:23;94372.66;;;2.37;88.94
13027;BME280;6580;42.680;23.324;2024-01-15T10:14:53;94365.81;;;2.75;88.62
13027;BME280;6580;42.680;23.324;2024-01-15T10:17:20;94357.16;;;2.94;84.11
13027;BME280;6580;42.680;23.324;2024-01-15T10:19:47;94333.97;;;3.27;82.50
13027;BME280;6580;42.680;23.324;2024-01-15T10:22:14;94334.94;;;3.16;81.54
13027;BME280;6580;42.680;23.324;2024-01-15T10:24:43;94344.38;;;3.66;79.60
13027;BME280;6580;42.680;23.324;2024-01-15T10:27:11;94310.84;;;3.78;75.91
13027;BME280;6580;42.680;23.324;2024-01-15T10:29:38;94323.19;;;3.96;73.39
13027;BME280;6580;42.680;23.324;2024-01-15T10:32:08;94318.75;;;3.78;73.11
13027;BME280;6580;42.680;23.324;2024-01-15T10:34:38;94319.78;;;4.32;71.25
13027;BME280;6580;42.680;23.324;2024-01-15T10:37:07;94320.88;;;4.20;70.67
13027;BME280;6580;42.680;23.324;2024-01-15T10:39:35;94297.75;;;4.60;70.72
13027;BME280;6580;42.680;23.324;2024-01-15T10:42:09;94307.91;;;5.70;65.15
13027;BME280;6580;42.680;23.324;2024-01-15T10:44:37;94309.13;;;5.93;63.07
13027;BME280;6580;42.680;23.324;2024-01-15T10:47:04;94309.16;;;6.44;60.57
13027;BME280;6580;42.680;23.324;2024-01-15T10:49:31;94285.88;;;7.14;57.55
13027;BME280;6580;42.680;23.324;2024-01-15T10:51:59;94286.50;;;7.57;55.37
13027;BME280;6580;42.680;23.324;2024-01-15T10:54:27;94267.94;;;6.92;55.87
13027;BME280;6580;42.680;23.324;2024-01-15T10:56:56;94286.25;;;5.84;59.25
13027;BME280;6580;42.680;23.324;2024-01-15T10:59:25;94273.25;;;5.03;61.85
13027;BME280;6580;42.680;23.324;2024-01-15T11:01:52;94277.63;;;5.47;63.37
13027;BME280;6580;42.680;23.324;2024-01-15T11:04:20;94275.03;;;5.82;62.59
13027;BME280;6580;42.680;23.324;2024-01-15T11:06:51;94275.75;;;6.35;60.08
13027;BME280;6580;42.680;23.324;2024-01-15T11:09:19;94263.59;;;7.32;56.92
13027;BME280;6580;42.680;23.324;2024-01-15T11:11:47;94257.00;;;9.02;52.44
13027;BME280;6580;42.680;23.324;2024-01-15T11:14:34;94245.19;;;9.43;48.73
13027;BME280;6580;42.680;23.324;2024-01-15T11:17:01;94239.47;;;10.07;46.67
13027;BME280;6580;42.680;23.324;2024-01-15T11:19:43;94224.28;;;11.10;44.46
13027;BME280;6580;42.680;23.324;2024-01-15T11:22:47;94220.56;;;10.02;45.46
13027;BME280;6580;42.680;23.324;2024-01-15T11:25:17;94231.41;;;9.92;45.95
13027;BME280;6580;42.680;23.324;2024-01-15T11:27:47;94220.09;;;10.35;45.32
13027;BME280;6580;42.680;23.324;2024-01-15T11:30:18;94220.63;;;10.30;44.63
13027;BME280;6580;42.680;23.324;2024-01-15T11:32:46;94227.91;;;9.16;46.80
13027;BME280;6580;42.680;23.324;2024-01-15T11:35:14;94232.69;;;8.91;47.01
13027;BME280;6580;42.680;23.324;2024-01-15T11:38:03;94242.28;;;8.13;48.51
13027;BME280;6580;42.680;23.324;2024-01-15T11:40:39;94209.66;;;7.57;50.41
13027;BME280;6580;42.680;23.324;2024-01-15T11:43:08;94222.34;;;7.22;52.06
13027;BME280;6580;42.680;23.324;2024-01-15T11:45:39;94220.53;;;7.22;52.73
13027;BME280;6580;42.680;23.324;2024-01-15T11:48:12;94210.25;;;7.03;53.43
13027;BME280;6580;42.680;23.324;2024-01-15T11:50:41;94222.31;;;7.06;53.28
13027;BME280;6580;42.680;23.324;2024-01-15T11:53:15;94202.41;;;6.78;54.50
13027;BME280;6580;42.680;23.324;2024-01-15T11:55:44;94198.31;;;6.50;55.69
13027;BME280;6580;42.680;23.324;2024-01-15T11:58:12;94194.22;;;6.64;55.21
13027;BME280;6580;42.680;23.324;2024-01-15T12:00:43;94193.66;;;6.11;57.07
13027;BME280;6580;42.680;23.324;2024-01-15T12:03:10;94203.75;;;5.90;59.22
13027;BME280;6580;42.680;23.324;2024-01-15T12:05:39;94209.09;;;5.98;59.70
13027;BME280;6580;42.680;23.324;2024-01-15T12:08:07;94201.28;;;6.22;60.27
13027;BME280;6580;42.680;23.324;2024-01-15T12:10:38;94194.09;;;6.32;57.79
13027;BME280;6580;42.680;23.324;2024-01-15T12:13:10;94198.63;;;6.14;58.73
13027;BME280;6580;42.680;23.324;2024-01-15T12:15:37;94181.63;;;6.16;59.34
13027;BME280;6580;42.680;23.324;2024-01-15T12:18:10;94172.38;;;6.54;58.66
13027;BME280;6580;42.680;23.324;2024-01-15T12:20:37;94166.03;;;6.05;60.22
13027;BME280;6580;42.680;23.324;2024-01-15T12:23:08;94187.19;;;5.80;60.07
13027;BME280;6580;42.680;23.324;2024-01-15T12:25:35;94182.78;;;5.71;62.77
13027;BME280;6580;42.680;23.324;2024-01-15T12:28:03;94170.84;;;5.67;61.93
13027;BME280;6580;42.680;23.324;2024-01-15T12:30:30;94181.50;;;5.75;62.38
13027;BME280;6580;42.680;23.324;2024-01-15T12:33:01;94184.75;;;5.69;62.35
13027;BME280;6580;42.680;23.324;2024-01-15T12:35:30;94164.44;;;5.44;63.50
13027;BME280;6580;42.680;23.324;2024-01-15T12:38:01;94169.09;;;5.76;62.77
13027;BME280;6580;42.680;23.324;2024-01-15T12:40:31;94162.53;;;6.05;61.42
13027;BME280;6580;42.680;23.324;2024-01-15T12:42:59;94152.34;;;6.10;61.92
13027;BME280;6580;42.680;23.324;2024-01-15T12:45:26;94143.13;;;6.14;61.63
13027;BME280;6580;42.680;23.324;2024-01-15T12:47:53;94127.31;;;5.89;61.55
13027;BME280;6580;42.680;23.324;2024-01-15T12:50:24;94155.56;;;5.96;62.59
13027;BME280;6580;42.680;23.324;2024-01-15T12:52:53;94168.72;;;5.88;64.35
13027;BME280;6580;42.680;23.324;2024-01-15T12:55:21;94152.38;;;5.85;63.09
13027;BME280;6580;42.680;23.324;2024-01-15T12:57:49;94134.50;;;5.79;64.13
13027;BME280;6580;42.680;23.324;2024-01-15T13:00:20;94147.00;;;5.77;63.57
13027;BME280;6580;42.680;23.324;2024-01-15T13:02:48;94144.81;;;5.90;63.63
13027;BME280;6580;42.680;23.324;2024-01-15T13:05:17;94145.81;;;5.71;65.16